Startpagina
METAR-TAF:

METAR-TAF

Vliegvelden :

Mission Field

Livingston, Montana, Verenigde Staten

breedte: 45-41-58N, lengte: 110-26-54W, hoogte: 1419 m

Actueel weer

Dit bericht is 25 minuten geleden gemaakt, om 10:53 UTC
Wind 10 kt uit het westnoordwesten met uitschieters tot 21 kt
Temperatuur 0°C
Vochtigheid 74%
Druk 1014 hPa
Zicht: 16.1 km
Geheel bewolkt op 3300 ft

METAR: KLVM 201053Z AUTO 30010G21KT 10SM OVC033 00/M04 A2993 RMK AO2 PK WND 31027/1007 SLP144 T00001044

Tijdstip: 04:18 (11:18 UTC)

Verwachting

Dit bericht is 5 uur en het 53 minuten geleden gemaakt, om 05:25 UTC
Verwachting geldig van 20 om 06 UTC tot 21 om 06 UTC
Wind 12 kt uit het westen
Zicht: 10 km
Geheel bewolkt op 3000 ft
Van 20 om 1700 UTC
Wind 9 kt uit het oostnoordoosten
Zicht: 10 km
Geheel bewolkt op 3000 ft

TAF: KLVM 200525Z 2006/2106 28012KT P6SM OVC030 FM201700 07009KT P6SM OVC030

Waarnemingen en weersverwachtingen van meer dan 4000 vliegvelden (METAR en TAF).

De beschikbare stations zijn de gele en rode punten op de kaart.

Ga met uw muis naar het station om de naam te zien.

Klik dan om waarnemingen en weersverwachtingen te zien.

kaart wijzigen: klik op de groene knoppen met een zwart kruis om in te zoomen, op de groene knop met een streepje om uit te zoomen of op de groene pijlen voor aangrenzende kaarten.


METAR-TAF: